Terminal Aerodrome Forecast
Issued by NWS Chicago, IL

Home | Current Version | Previous Version | Graphics & Text | Print | Product List | Glossary On
Versions: 1 2 3 4 5 6 7 8 9 10 11 12 13 14 15 16 17 18 19 20 21 22 23 24 25 26 27 28 29 30 31 32 33
000
FTUS43 KLOT 311354 AAA
TAFRFD
TAF AMD
KRFD 311354Z 3114/0112 05013G22KT P6SM BKN015
     FM311500 05013G21KT P6SM BKN025
     FM311800 06014G21KT P6SM SCT035
     FM010100 05007KT P6SM FEW250=

USA.gov is the U.S. government's official web portal to all federal, state and local government web resources and services.